Time;durP1;ratioP1;P1;durP2;ratioP2;P2;SDS_P1;SDS_P2;PMS_P1;PMS_P2;Temp;Humidity;BMP_temperature;BMP_pressure;BME280_temperature;BME280_humidity;BME280_pressure;Samples;Min_cycle;Max_cycle;Signal;HPM_P1;HPM_P2
2023/03/09 00:01:20;;;;;;;17.58;10.57;;;;;;;7.69;54.97;99116.53;5083179;27;97089;-70
2023/03/09 00:03:47;;;;;;;19.00;11.07;;;;;;;7.55;55.44;99120.69;5080316;27;96784;-71
2023/03/09 00:06:14;;;;;;;19.48;11.30;;;;;;;7.73;54.68;99129.50;5076808;27;100657;-70
2023/03/09 00:08:41;;;;;;;19.25;11.30;;;;;;;7.72;54.60;99133.03;5077936;27;98839;-72
2023/03/09 00:11:08;;;;;;;20.23;10.88;;;;;;;7.70;55.06;99137.50;5079749;27;96844;-70
2023/03/09 00:13:37;;;;;;;19.48;11.65;;;;;;;7.83;54.35;99125.47;5080692;27;97314;-71
2023/03/09 00:16:11;;;;;;;19.85;11.20;;;;;;;7.49;54.70;99134.16;5088673;27;102959;-70
2023/03/09 00:18:38;;;;;;;20.38;12.13;;;;;;;7.35;55.37;99127.88;5082799;27;99170;-73
2023/03/09 00:21:05;;;;;;;20.15;12.20;;;;;;;7.50;54.79;99129.75;5079447;27;96712;-70
2023/03/09 00:23:33;;;;;;;19.85;11.80;;;;;;;7.45;54.42;99129.97;5082457;27;96794;-70
2023/03/09 00:26:03;;;;;;;27.02;12.68;;;;;;;7.61;54.38;99130.91;5079975;27;98926;-70
2023/03/09 00:28:30;;;;;;;23.58;12.98;;;;;;;7.68;54.44;99135.91;5086367;27;97630;-70
2023/03/09 00:31:02;;;;;;;21.92;12.85;;;;;;;7.63;54.17;99132.63;5081873;27;97615;-70
2023/03/09 00:33:28;;;;;;;21.65;12.63;;;;;;;7.43;54.80;99131.81;5080583;27;96854;-72
2023/03/09 00:35:54;;;;;;;24.67;13.77;;;;;;;7.67;54.28;99118.41;5085007;27;98640;-70
2023/03/09 00:38:21;;;;;;;25.63;14.70;;;;;;;7.55;54.28;99127.72;5087319;27;99020;-70
2023/03/09 00:40:47;;;;;;;24.45;14.75;;;;;;;7.67;54.33;99128.94;5085043;27;96703;-70
2023/03/09 00:43:13;;;;;;;23.60;13.98;;;;;;;7.20;55.11;99130.31;5081561;27;98012;-71
2023/03/09 00:45:40;;;;;;;25.77;14.73;;;;;;;7.51;54.73;99134.94;5086242;27;98810;-71
2023/03/09 00:48:07;;;;;;;27.15;14.63;;;;;;;7.46;54.79;99136.09;5090549;27;98544;-71
2023/03/09 00:50:34;;;;;;;24.77;14.07;;;;;;;7.58;54.44;99141.59;5080799;27;96742;-71
2023/03/09 00:53:00;;;;;;;23.58;14.10;;;;;;;7.64;54.12;99131.69;5081884;27;97119;-72
2023/03/09 00:55:27;;;;;;;23.52;14.00;;;;;;;7.64;54.11;99126.44;5083810;27;97773;-72
2023/03/09 00:57:53;;;;;;;24.40;14.15;;;;;;;7.49;54.15;99126.25;5072572;27;98841;-72
2023/03/09 01:00:21;;;;;;;24.63;13.75;;;;;;;7.62;53.95;99131.78;5076678;27;96973;-72
2023/03/09 01:02:47;;;;;;;25.17;14.18;;;;;;;7.49;54.18;99125.41;5075036;27;98345;-71
2023/03/09 01:05:15;;;;;;;26.38;14.38;;;;;;;7.42;54.24;99122.22;5078574;27;101267;-73
2023/03/09 01:07:42;;;;;;;24.63;14.18;;;;;;;7.55;54.19;99099.69;5079365;27;97492;-72
2023/03/09 01:10:11;;;;;;;22.45;13.50;;;;;;;7.57;53.82;99103.09;5077676;27;97733;-72
2023/03/09 01:12:40;;;;;;;25.27;13.93;;;;;;;7.63;53.55;99101.06;5076654;27;97259;-71
2023/03/09 01:15:07;;;;;;;25.65;13.90;;;;;;;7.38;53.94;99104.06;5085633;27;98841;-73
2023/03/09 01:17:34;;;;;;;26.27;14.02;;;;;;;7.54;53.99;99097.16;5081123;27;98983;-73
2023/03/09 01:20:00;;;;;;;26.75;14.35;;;;;;;7.53;53.53;99096.28;5078201;27;98521;-73
2023/03/09 01:22:28;;;;;;;23.13;13.45;;;;;;;7.30;54.36;99096.53;5080224;27;98808;-73
2023/03/09 01:24:54;;;;;;;22.88;12.40;;;;;;;7.35;54.39;99093.72;5079190;27;98806;-72
2023/03/09 01:27:21;;;;;;;23.20;14.65;;;;;;;7.47;53.86;99091.34;5079861;27;100343;-72
2023/03/09 01:29:47;;;;;;;24.17;14.93;;;;;;;7.51;53.75;99090.25;5085808;27;98778;-72
2023/03/09 01:32:14;;;;;;;25.05;14.48;;;;;;;7.55;53.46;99091.78;5078956;27;97167;-72
2023/03/09 01:34:40;;;;;;;26.20;14.48;;;;;;;7.32;53.86;99096.47;5081029;27;97850;-73
2023/03/09 01:37:06;;;;;;;25.98;14.63;;;;;;;7.44;54.03;99080.09;5079073;27;99079;-72
2023/03/09 01:39:34;;;;;;;26.50;14.85;;;;;;;7.58;53.75;99081.13;5080584;27;97628;-73
2023/03/09 01:42:00;;;;;;;27.85;15.15;;;;;;;7.42;54.29;99072.28;5078799;27;96857;-72
2023/03/09 01:44:27;;;;;;;24.15;14.20;;;;;;;7.33;54.22;99077.16;5075875;27;98955;-72
2023/03/09 01:46:56;;;;;;;26.08;15.20;;;;;;;7.47;54.49;99080.81;5072192;27;99055;-72
2023/03/09 01:49:28;;;;;;;25.73;15.52;;;;;;;7.43;54.47;99091.53;5076149;27;96696;-71
2023/03/09 01:52:01;;;;;;;29.98;15.88;;;;;;;7.53;54.22;99082.28;5078685;27;98898;-72
2023/03/09 01:54:32;;;;;;;30.42;17.38;;;;;;;7.50;54.72;99083.28;5079435;27;98923;-71
2023/03/09 01:57:04;;;;;;;31.17;16.58;;;;;;;7.64;54.34;99076.50;5080931;27;98795;-73
2023/03/09 01:59:33;;;;;;;29.55;16.80;;;;;;;7.58;54.62;99081.13;5082701;27;97103;-71
2023/03/09 02:02:01;;;;;;;29.45;16.80;;;;;;;7.66;54.81;99069.41;5083609;27;97724;-72
2023/03/09 02:04:35;;;;;;;30.15;17.17;;;;;;;7.30;56.44;99069.41;5081141;27;98852;-71
2023/03/09 02:07:02;;;;;;;30.20;16.35;;;;;;;7.43;55.82;99068.75;5079856;27;98936;-70
2023/03/09 02:09:36;;;;;;;32.95;17.50;;;;;;;7.53;55.86;99070.00;5078224;27;98320;-71
2023/03/09 02:12:05;;;;;;;30.15;17.55;;;;;;;7.58;55.57;99073.25;5072030;27;97107;-72
2023/03/09 02:14:32;;;;;;;31.02;15.80;;;;;;;7.62;55.69;99081.81;5083142;27;99219;-71
2023/03/09 02:16:58;;;;;;;30.10;16.92;;;;;;;7.41;56.04;99073.25;5082225;27;98855;-71
2023/03/09 02:19:37;;;;;;;30.98;17.23;;;;;;;7.51;55.96;99077.09;5080841;27;97646;-71
2023/03/09 02:22:03;;;;;;;32.15;17.20;;;;;;;7.55;55.68;99070.75;5082615;27;96728;-72
2023/03/09 02:24:42;;;;;;;32.22;17.13;;;;;;;7.51;55.97;99074.47;5076595;27;101073;-72
2023/03/09 02:27:16;;;;;;;29.55;16.77;;;;;;;7.46;55.94;99065.13;5080699;27;97825;-71
2023/03/09 02:29:43;;;;;;;32.80;17.65;;;;;;;7.58;55.83;99057.47;5082419;27;97383;-72
2023/03/09 02:32:10;;;;;;;32.28;17.67;;;;;;;7.55;56.10;99051.50;5082278;27;97155;-72
2023/03/09 02:34:36;;;;;;;31.70;17.42;;;;;;;7.44;55.95;99057.31;5080558;27;99019;-72
2023/03/09 02:37:02;;;;;;;32.05;17.80;;;;;;;7.16;57.20;99051.69;5081750;27;99602;-71
2023/03/09 02:39:36;;;;;;;32.83;17.92;;;;;;;7.45;56.99;99043.25;5092042;27;96910;-72
2023/03/09 02:42:04;;;;;;;33.08;18.63;;;;;;;7.39;56.86;99043.56;5078650;27;97363;-72
2023/03/09 02:44:33;;;;;;;34.67;18.83;;;;;;;7.31;56.81;99045.69;5078084;27;99303;-71
2023/03/09 02:47:00;;;;;;;35.03;17.77;;;;;;;7.29;56.92;99041.44;5084656;27;99019;-71
2023/03/09 02:49:26;;;;;;;31.08;16.73;;;;;;;7.13;57.47;99044.81;5085645;27;96752;-70
2023/03/09 02:51:52;;;;;;;35.20;18.08;;;;;;;7.12;57.79;99042.28;5081984;27;97309;-71
2023/03/09 02:54:19;;;;;;;39.95;19.73;;;;;;;7.16;58.03;99039.41;5085641;27;99308;-71
2023/03/09 02:56:45;;;;;;;39.17;19.10;;;;;;;7.11;58.53;99030.06;5085232;27;99022;-73
2023/03/09 02:59:11;;;;;;;37.38;19.33;;;;;;;7.18;59.02;99031.47;5078819;27;97395;-72
2023/03/09 03:01:39;;;;;;;39.42;20.25;;;;;;;7.05;58.54;99030.34;5081011;27;98788;-72
2023/03/09 03:04:06;;;;;;;41.97;20.67;;;;;;;7.06;58.69;99037.31;5077452;27;99412;-70
2023/03/09 03:06:32;;;;;;;38.55;19.42;;;;;;;7.09;58.82;99031.91;5082659;27;101228;-72
2023/03/09 03:08:58;;;;;;;38.55;19.52;;;;;;;7.11;59.09;99030.91;5087495;27;96763;-71
2023/03/09 03:11:25;;;;;;;40.22;18.80;;;;;;;7.15;58.76;99039.50;5090296;27;97053;-71
2023/03/09 03:13:51;;;;;;;40.88;20.58;;;;;;;7.13;59.10;99033.47;5081353;27;98791;-72
2023/03/09 03:16:17;;;;;;;36.50;18.90;;;;;;;7.23;58.47;99034.72;5077656;27;98889;-71
2023/03/09 03:18:45;;;;;;;32.30;17.70;;;;;;;7.22;58.07;99035.63;5085635;27;98773;-71
2023/03/09 03:21:12;;;;;;;38.00;18.75;;;;;;;7.20;57.91;99034.88;5084081;27;97209;-72
2023/03/09 03:23:38;;;;;;;37.45;18.92;;;;;;;6.91;58.73;99038.03;5082194;27;98923;-70
2023/03/09 03:26:06;;;;;;;34.70;17.98;;;;;;;7.00;59.23;99027.97;5083216;27;98941;-72
2023/03/09 03:28:32;;;;;;;32.78;17.20;;;;;;;7.07;58.99;99023.25;5084735;27;97910;-71
2023/03/09 03:30:59;;;;;;;38.97;18.38;;;;;;;7.12;59.05;99021.25;5083032;27;97524;-72
2023/03/09 03:33:25;;;;;;;37.67;18.52;;;;;;;7.21;58.35;99020.81;5085790;27;98950;-71
2023/03/09 03:35:53;;;;;;;34.90;17.45;;;;;;;6.97;59.14;99021.97;5089235;27;99099;-71
2023/03/09 03:38:19;;;;;;;32.78;17.08;;;;;;;7.19;58.46;99015.63;5087591;27;96728;-71
2023/03/09 03:40:46;;;;;;;32.40;16.98;;;;;;;7.19;58.43;99030.53;5080492;27;97865;-71
2023/03/09 03:43:12;;;;;;;37.50;17.98;;;;;;;7.04;58.55;99028.66;5082071;27;99054;-71
2023/03/09 03:45:39;;;;;;;35.53;17.08;;;;;;;6.91;60.01;99024.91;5084867;27;98828;-73
2023/03/09 03:48:06;;;;;;;34.80;16.55;;;;;;;7.08;59.93;99022.34;5078145;27;101633;-72
2023/03/09 03:50:32;;;;;;;32.10;16.48;;;;;;;6.98;60.17;99026.31;5084139;27;99021;-72
2023/03/09 03:53:01;;;;;;;35.00;17.30;;;;;;;7.03;59.97;99019.06;5081517;27;97901;-72
2023/03/09 03:55:28;;;;;;;32.78;16.40;;;;;;;6.96;59.41;99012.41;5089664;27;98113;-72
2023/03/09 03:57:54;;;;;;;36.17;17.25;;;;;;;6.95;58.94;99005.47;5079428;27;96816;-71
2023/03/09 04:00:22;;;;;;;33.88;16.55;;;;;;;6.87;60.11;99005.84;5087148;27;98409;-71
2023/03/09 04:02:49;;;;;;;33.70;16.55;;;;;;;6.62;60.82;99006.16;5085231;27;99775;-71
2023/03/09 04:05:15;;;;;;;33.10;18.08;;;;;;;6.84;60.58;99010.38;5074041;27;99018;-74
2023/03/09 04:07:42;;;;;;;36.05;18.15;;;;;;;6.51;60.39;99005.78;5082657;27;97061;-71
2023/03/09 04:10:11;;;;;;;37.45;18.77;;;;;;;6.61;60.43;99001.81;5082812;27;97115;-73
2023/03/09 04:12:37;;;;;;;36.22;18.00;;;;;;;6.78;60.11;99006.25;5087102;27;99114;-72
2023/03/09 04:15:05;;;;;;;36.10;17.92;;;;;;;6.56;59.95;99010.84;5075605;27;99089;-72
2023/03/09 04:17:31;;;;;;;41.40;19.25;;;;;;;6.78;60.14;99004.50;5090577;27;96754;-70
2023/03/09 04:19:58;;;;;;;35.70;18.45;;;;;;;6.62;60.29;99000.06;5078243;27;97513;-71
2023/03/09 04:22:24;;;;;;;35.13;18.88;;;;;;;6.69;60.14;98997.06;5078275;27;99227;-70
2023/03/09 04:24:51;;;;;;;37.30;18.83;;;;;;;6.69;60.95;98989.19;5081162;27;99505;-69
2023/03/09 04:27:18;;;;;;;38.40;18.50;;;;;;;6.66;60.97;99005.06;5088385;27;96753;-71
2023/03/09 04:29:45;;;;;;;36.90;18.23;;;;;;;6.70;60.54;99011.03;5084184;27;96907;-72
2023/03/09 04:32:11;;;;;;;36.22;18.88;;;;;;;6.56;60.40;99014.31;5080499;27;100718;-69
2023/03/09 04:34:37;;;;;;;36.35;18.88;;;;;;;6.69;60.51;99018.06;5086256;27;99160;-71
2023/03/09 04:37:04;;;;;;;35.40;19.35;;;;;;;6.69;59.65;99011.97;5079833;27;96834;-72
2023/03/09 04:39:30;;;;;;;37.17;19.23;;;;;;;6.32;60.87;99008.41;5084775;27;96867;-72
2023/03/09 04:41:57;;;;;;;39.03;19.45;;;;;;;6.55;61.04;99015.25;5086412;27;99097;-72
2023/03/09 04:44:24;;;;;;;36.35;18.80;;;;;;;6.50;61.55;99009.31;5087365;27;98973;-72
2023/03/09 04:46:51;;;;;;;39.13;19.90;;;;;;;6.55;60.75;99012.63;5080385;27;96900;-71
2023/03/09 04:49:17;;;;;;;39.28;20.50;;;;;;;6.58;61.09;99009.81;5089047;27;97625;-71
2023/03/09 04:51:43;;;;;;;42.53;20.75;;;;;;;6.59;60.70;99016.78;5084113;27;99303;-72
2023/03/09 04:54:10;;;;;;;39.38;20.85;;;;;;;6.59;59.83;99022.03;5078376;27;98824;-72
2023/03/09 04:56:36;;;;;;;42.10;20.00;;;;;;;6.62;59.79;99021.91;5083682;27;97072;-72
2023/03/09 04:59:03;;;;;;;38.63;21.00;;;;;;;6.70;59.32;99034.66;5083123;27;97889;-72
2023/03/09 05:01:30;;;;;;;37.25;19.60;;;;;;;6.65;59.37;99037.50;5086680;27;98876;-73
2023/03/09 05:03:57;;;;;;;41.50;21.25;;;;;;;6.64;59.28;99042.81;5070691;27;100644;-71
2023/03/09 05:06:23;;;;;;;36.83;19.92;;;;;;;6.73;59.46;99031.88;5083597;27;98699;-72
2023/03/09 05:08:50;;;;;;;41.10;21.27;;;;;;;6.84;58.81;99039.25;5081416;27;98869;-73
2023/03/09 05:11:16;;;;;;;39.15;20.85;;;;;;;6.92;58.76;99042.38;5083228;27;102173;-73
2023/03/09 05:13:42;;;;;;;36.40;19.73;;;;;;;6.81;58.99;99042.88;5080118;27;98821;-71
2023/03/09 05:16:09;;;;;;;39.95;21.23;;;;;;;6.69;59.49;99043.47;5081483;27;96973;-72
2023/03/09 05:18:37;;;;;;;36.45;18.65;;;;;;;6.68;59.52;99050.50;5078679;27;99079;-73
2023/03/09 05:21:05;;;;;;;41.53;21.05;;;;;;;6.66;58.78;99046.22;5080178;27;97613;-72
2023/03/09 05:23:32;;;;;;;36.60;19.55;;;;;;;6.62;59.31;99056.03;5082772;27;99111;-71
2023/03/09 05:26:02;;;;;;;35.35;19.05;;;;;;;6.65;59.49;99057.63;5086883;27;99214;-71
2023/03/09 05:28:30;;;;;;;40.13;21.50;;;;;;;6.44;60.09;99064.72;5081879;27;97307;-72
2023/03/09 05:30:56;;;;;;;36.70;20.55;;;;;;;6.56;61.36;99058.06;5081928;27;98881;-72
2023/03/09 05:33:23;;;;;;;42.53;21.45;;;;;;;6.85;61.02;99061.97;5080297;27;99019;-70
2023/03/09 05:35:51;;;;;;;38.28;21.23;;;;;;;6.86;60.18;99064.53;5084469;27;96788;-71
2023/03/09 05:38:17;;;;;;;40.30;20.70;;;;;;;6.98;59.87;99065.72;5082818;27;96855;-72
2023/03/09 05:40:44;;;;;;;41.75;20.05;;;;;;;6.87;60.67;99060.13;5078030;27;98814;-71
2023/03/09 05:43:11;;;;;;;36.90;19.80;;;;;;;6.99;59.68;99067.41;5074776;27;99343;-71
2023/03/09 05:45:37;;;;;;;34.63;19.33;;;;;;;6.60;60.20;99063.09;5072846;27;97479;-71
2023/03/09 05:48:04;;;;;;;42.05;21.27;;;;;;;6.65;61.90;99074.25;5075825;27;96897;-71
2023/03/09 05:50:31;;;;;;;40.17;21.02;;;;;;;6.74;61.69;99060.69;5084407;27;98725;-72
2023/03/09 05:52:59;;;;;;;41.72;21.58;;;;;;;6.68;62.36;99076.75;5085908;27;99020;-70
2023/03/09 05:55:27;;;;;;;43.53;21.65;;;;;;;6.89;61.59;99072.25;5073400;27;96844;-72
2023/03/09 05:57:54;;;;;;;40.40;20.52;;;;;;;7.09;60.49;99076.53;5076330;27;96741;-71
2023/03/09 06:00:21;;;;;;;46.20;23.50;;;;;;;6.87;60.61;99078.50;5081770;27;98951;-71
2023/03/09 06:02:47;;;;;;;38.47;20.65;;;;;;;6.83;nan;99087.47;5076630;27;98842;-70
2023/03/09 06:05:13;;;;;;;37.75;20.00;;;;;;;6.91;60.52;99095.81;5080729;27;96783;-73
2023/03/09 06:07:40;;;;;;;35.92;19.55;;;;;;;6.87;60.83;99107.38;5079892;27;97079;-70
2023/03/09 06:10:10;;;;;;;34.08;18.75;;;;;;;6.99;59.94;99094.53;5075697;27;101763;-70
2023/03/09 06:12:37;;;;;;;38.58;20.17;;;;;;;6.92;60.21;99105.38;5077371;27;101387;-71
2023/03/09 06:15:03;;;;;;;33.78;18.35;;;;;;;6.96;59.96;99115.66;5080477;27;97670;-72
2023/03/09 06:17:30;;;;;;;37.42;20.77;;;;;;;6.98;59.82;99118.22;5083858;27;96771;-70
2023/03/09 06:19:56;;;;;;;35.33;19.40;;;;;;;6.93;60.26;99109.72;5084488;27;97706;-71
2023/03/09 06:22:23;;;;;;;36.83;19.70;;;;;;;6.88;60.08;99116.97;5077916;27;99160;-70
2023/03/09 06:24:49;;;;;;;33.10;17.90;;;;;;;6.93;59.49;99134.22;5081390;27;96777;-71
2023/03/09 06:27:17;;;;;;;33.30;18.30;;;;;;;7.18;59.51;99126.03;5088814;27;97529;-71
2023/03/09 06:29:44;;;;;;;29.65;17.00;;;;;;;7.15;59.14;99131.44;5082254;27;99053;-70
2023/03/09 06:32:10;;;;;;;28.35;16.95;;;;;;;7.23;58.57;99129.28;5078467;27;98801;-70
2023/03/09 06:34:37;;;;;;;32.35;18.10;;;;;;;7.16;58.99;99128.72;5077090;27;96836;-72
2023/03/09 06:37:03;;;;;;;26.77;16.17;;;;;;;7.02;59.49;99140.81;5078313;27;98724;-71
2023/03/09 06:39:30;;;;;;;30.58;17.75;;;;;;;7.40;58.24;99147.75;5074400;27;99323;-72
2023/03/09 06:41:59;;;;;;;35.92;18.92;;;;;;;7.10;58.86;99151.78;5080743;27;98769;-70
2023/03/09 06:44:27;;;;;;;31.65;17.75;;;;;;;7.12;59.26;99160.47;5084514;27;97050;-72
2023/03/09 06:46:53;;;;;;;42.45;23.45;;;;;;;7.15;59.47;99165.59;5082607;27;97901;-72
2023/03/09 06:49:20;;;;;;;30.25;17.50;;;;;;;7.15;59.09;99162.97;5078027;27;97780;-72
2023/03/09 06:51:46;;;;;;;32.20;17.75;;;;;;;7.12;59.02;99163.94;5078787;27;98934;-71
2023/03/09 06:54:15;;;;;;;33.60;17.85;;;;;;;7.17;59.07;99167.22;5074722;27;96802;-73
2023/03/09 06:56:42;;;;;;;35.05;19.50;;;;;;;7.18;58.54;99178.56;5070442;27;96873;-72
2023/03/09 06:59:08;;;;;;;34.15;18.27;;;;;;;7.27;58.13;99177.28;5077775;27;99182;-71
2023/03/09 07:01:37;;;;;;;31.67;17.77;;;;;;;7.38;57.80;99173.22;5080961;27;98907;-72
2023/03/09 07:04:03;;;;;;;28.88;16.13;;;;;;;7.61;57.44;99182.66;5079536;27;97137;-71
2023/03/09 07:06:34;;;;;;;26.08;14.63;;;;;;;7.69;57.01;99195.41;5068825;27;98538;-71
2023/03/09 07:09:01;;;;;;;35.83;21.08;;;;;;;7.63;56.53;99211.47;5083043;27;98073;-73
2023/03/09 07:11:27;;;;;;;30.33;18.27;;;;;;;7.53;56.65;99219.81;5079017;27;98776;-73
2023/03/09 07:13:54;;;;;;;25.60;14.80;;;;;;;7.78;56.38;99218.66;5081320;27;97368;-71
2023/03/09 07:16:22;;;;;;;24.73;15.18;;;;;;;7.56;56.40;99214.41;5081023;27;98656;-72
2023/03/09 07:18:50;;;;;;;24.25;14.07;;;;;;;7.65;55.87;99222.78;5073812;27;99229;-72
2023/03/09 07:21:16;;;;;;;22.48;14.07;;;;;;;7.49;56.31;99228.75;5082079;27;100597;-72
2023/03/09 07:23:43;;;;;;;26.65;15.32;;;;;;;7.55;55.91;99231.09;5081454;27;97461;-71
2023/03/09 07:26:09;;;;;;;25.15;14.13;;;;;;;7.84;55.29;99236.75;5079306;27;96998;-72
2023/03/09 07:28:36;;;;;;;23.73;13.73;;;;;;;7.69;55.91;99253.25;5081854;27;99741;-73
2023/03/09 07:31:07;;;;;;;24.70;13.02;;;;;;;7.75;55.52;99258.22;5081033;27;99204;-74
2023/03/09 07:33:35;;;;;;;25.83;13.75;;;;;;;7.77;55.16;99246.72;5079576;27;98391;-74
2023/03/09 07:36:04;;;;;;;23.38;13.63;;;;;;;7.79;55.27;99249.28;5081247;27;97886;-72
2023/03/09 07:38:31;;;;;;;20.48;12.68;;;;;;;7.79;55.14;99249.28;5089134;27;97986;-72
2023/03/09 07:41:02;;;;;;;21.85;13.65;;;;;;;7.68;54.59;99259.47;5078792;27;98297;-71
2023/03/09 07:43:29;;;;;;;19.83;13.07;;;;;;;7.80;54.30;99269.41;5084503;27;97907;-73
2023/03/09 07:45:55;;;;;;;24.08;12.80;;;;;;;7.73;54.05;99265.34;5077059;27;96890;-72
2023/03/09 07:48:21;;;;;;;24.92;13.38;;;;;;;7.75;54.48;99274.00;5076956;27;98081;-73
2023/03/09 07:50:57;;;;;;;21.88;12.68;;;;;;;7.71;54.15;99272.44;5086333;27;100160;-71
2023/03/09 07:53:24;;;;;;;21.17;12.73;;;;;;;7.75;54.04;99269.59;5073734;27;97076;-72
2023/03/09 07:55:57;;;;;;;22.85;12.55;;;;;;;7.66;54.02;99267.41;5078584;27;97304;-74
2023/03/09 07:58:23;;;;;;;21.17;12.23;;;;;;;7.63;54.04;99271.94;5078338;27;99049;-72
2023/03/09 08:00:50;;;;;;;21.38;12.85;;;;;;;7.52;54.46;99283.84;5084672;27;98956;-73
2023/03/09 08:03:17;;;;;;;18.52;12.48;;;;;;;7.68;54.01;99302.34;5077853;27;96848;-72
2023/03/09 08:05:43;;;;;;;20.70;12.30;;;;;;;7.74;53.18;99306.50;5085538;27;97274;-72
2023/03/09 08:08:11;;;;;;;21.65;12.55;;;;;;;7.71;53.28;99304.84;5079865;27;98949;-73
2023/03/09 08:10:39;;;;;;;18.52;12.30;;;;;;;7.82;53.63;99312.22;5082882;27;97683;-72
2023/03/09 08:13:06;;;;;;;20.63;12.10;;;;;;;7.76;53.31;99313.38;5079711;27;98820;-73
2023/03/09 08:15:32;;;;;;;24.17;12.13;;;;;;;7.80;52.67;99322.00;5077545;27;97130;-72
2023/03/09 08:18:00;;;;;;;20.90;12.55;;;;;;;7.74;52.78;99322.28;5079160;27;99354;-72
2023/03/09 08:20:26;;;;;;;21.30;13.15;;;;;;;7.67;53.20;99310.34;5075920;27;101342;-71
2023/03/09 08:22:53;;;;;;;22.40;12.75;;;;;;;7.51;53.56;99316.28;5084073;27;97351;-72
2023/03/09 08:25:19;;;;;;;21.00;13.05;;;;;;;7.45;53.46;99327.09;5083011;27;97086;-71
2023/03/09 08:27:48;;;;;;;21.90;13.25;;;;;;;7.56;53.21;99331.84;5076768;27;98052;-71
2023/03/09 08:30:18;;;;;;;20.80;13.65;;;;;;;7.96;52.66;99334.34;5074717;27;98086;-72
2023/03/09 08:32:47;;;;;;;20.23;12.88;;;;;;;7.88;52.51;99333.84;5079793;27;97402;-73
2023/03/09 08:35:14;;;;;;;22.88;13.50;;;;;;;8.02;52.03;99331.41;5074600;27;97006;-70
2023/03/09 08:37:40;;;;;;;22.92;14.13;;;;;;;7.96;52.04;99346.63;5078860;27;98548;-71
2023/03/09 08:40:08;;;;;;;23.50;13.52;;;;;;;7.83;52.04;99341.09;5079174;27;98822;-73
2023/03/09 08:42:35;;;;;;;19.83;13.48;;;;;;;7.81;52.28;99339.47;5084632;27;97197;-71
2023/03/09 08:45:04;;;;;;;23.67;14.38;;;;;;;7.96;52.43;99342.22;5080885;27;96908;-71
2023/03/09 08:47:31;;;;;;;22.83;13.68;;;;;;;8.26;51.87;99360.13;5081088;27;98927;-71
2023/03/09 08:49:58;;;;;;;23.05;14.80;;;;;;;8.28;51.00;99356.47;5088462;27;98856;-71
2023/03/09 08:52:25;;;;;;;24.80;15.07;;;;;;;8.15;51.06;99368.53;5081964;27;98617;-73
2023/03/09 08:54:52;;;;;;;24.48;15.15;;;;;;;8.14;51.16;99360.72;5081764;27;96860;-73
2023/03/09 08:57:19;;;;;;;24.17;15.50;;;;;;;8.09;51.63;99360.06;5076128;27;98968;-71
2023/03/09 08:59:48;;;;;;;29.48;14.77;;;;;;;7.91;51.78;99357.38;5082450;27;98984;-71
2023/03/09 09:02:16;;;;;;;24.98;15.27;;;;;;;8.06;51.74;99365.47;5082272;27;98719;-70
2023/03/09 09:04:42;;;;;;;37.53;21.00;;;;;;;7.84;51.94;99368.25;5080618;27;97528;-71
2023/03/09 09:07:09;;;;;;;25.35;16.13;;;;;;;7.59;52.11;99369.38;5080567;27;100557;-72
2023/03/09 09:09:35;;;;;;;26.40;16.58;;;;;;;7.77;52.40;99383.47;5085284;27;98925;-71
2023/03/09 09:12:02;;;;;;;29.02;16.83;;;;;;;7.95;52.18;99387.00;5082517;27;96747;-72
2023/03/09 09:14:28;;;;;;;26.27;16.30;;;;;;;7.73;52.19;99396.81;5074385;27;97095;-71
2023/03/09 09:16:55;;;;;;;27.80;16.05;;;;;;;7.88;52.01;99396.97;5077374;27;99052;-73
2023/03/09 09:19:23;;;;;;;28.73;17.25;;;;;;;7.86;51.79;99392.72;5081783;27;98700;-72
2023/03/09 09:21:51;;;;;;;29.52;17.17;;;;;;;7.98;51.92;99400.88;5079815;27;96770;-71
2023/03/09 09:24:18;;;;;;;28.70;17.25;;;;;;;7.90;51.73;99407.41;5077576;27;97355;-70
2023/03/09 09:26:44;;;;;;;31.75;18.65;;;;;;;7.81;51.98;99416.56;5082106;27;102467;-71
2023/03/09 09:29:11;;;;;;;29.42;17.40;;;;;;;7.83;52.42;99416.50;5080442;27;99226;-70
2023/03/09 09:31:38;;;;;;;26.60;17.35;;;;;;;7.88;51.86;99414.50;5086884;27;96789;-72
2023/03/09 09:34:05;;;;;;;31.98;18.27;;;;;;;8.00;51.65;99420.09;5080656;27;96867;-73
2023/03/09 09:36:34;;;;;;;30.40;17.38;;;;;;;7.68;52.04;99414.59;5079916;27;99195;-71
2023/03/09 09:39:04;;;;;;;26.42;16.42;;;;;;;7.92;51.66;99413.47;5081169;27;104870;-73
2023/03/09 09:41:41;;;;;;;27.83;17.23;;;;;;;8.01;51.61;99420.91;5080578;27;96851;-71
2023/03/09 09:44:10;;;;;;;;;;;;;;;8.06;51.54;99431.25;5080561;27;97208;-71
2023/03/09 09:46:39;;;;;;;30.35;17.15;;;;;;;8.08;51.36;99432.88;5070852;27;98991;-72
2023/03/09 09:49:06;;;;;;;28.95;17.40;;;;;;;8.05;51.09;99437.44;5083597;27;101960;-71
2023/03/09 09:52:00;;;;;;;31.55;17.25;;;;;;;8.05;51.18;99440.06;5077075;27;97008;-73
2023/03/09 09:54:37;;;;;;;29.13;17.63;;;;;;;7.98;51.99;99436.88;5075515;27;97048;-71
2023/03/09 09:57:10;;;;;;;29.08;17.38;;;;;;;8.05;51.81;99446.19;5076731;27;99257;-71
2023/03/09 09:59:41;;;;;;;30.88;17.42;;;;;;;8.24;51.21;99446.19;5069465;27;97507;-72
2023/03/09 10:02:23;;;;;;;32.80;17.58;;;;;;;8.41;50.80;99446.28;5077374;27;98282;-71
2023/03/09 10:04:56;;;;;;;31.13;16.35;;;;;;;8.40;50.91;99440.16;5073045;27;97550;-71
2023/03/09 10:07:25;;;;;;;28.73;16.33;;;;;;;8.42;50.74;99449.75;5073111;27;99219;-71
2023/03/09 10:09:57;;;;;;;30.55;16.73;;;;;;;8.56;50.77;99453.44;5079070;27;99080;-71
2023/03/09 10:12:24;;;;;;;26.52;16.13;;;;;;;8.59;50.27;99455.09;5081972;27;96941;-70
2023/03/09 10:14:54;;;;;;;27.77;17.25;;;;;;;8.54;50.18;99460.56;5072966;27;97225;-73
2023/03/09 10:17:27;;;;;;;28.25;17.25;;;;;;;8.51;50.13;99468.63;5077785;27;98131;-72
2023/03/09 10:19:58;;;;;;;29.35;17.17;;;;;;;8.38;50.62;99464.84;5078250;27;99001;-72
2023/03/09 10:22:27;;;;;;;34.05;17.75;;;;;;;8.20;51.69;99463.91;5076521;27;96899;-72
2023/03/09 10:24:55;;;;;;;35.75;20.35;;;;;;;8.22;51.72;99463.81;5074413;27;97475;-71
2023/03/09 10:27:31;;;;;;;32.10;16.92;;;;;;;8.29;50.68;99468.72;5072675;27;99298;-71
2023/03/09 10:30:03;;;;;;;28.65;16.77;;;;;;;8.23;51.23;99476.91;5071848;27;98854;-72
2023/03/09 10:32:43;;;;;;;30.40;18.15;;;;;;;8.40;51.39;99481.44;5072026;27;96915;-71
2023/03/09 10:35:20;;;;;;;28.60;16.98;;;;;;;8.52;50.76;99485.28;5076871;27;97640;-72
2023/03/09 10:37:50;;;;;;;26.33;17.38;;;;;;;8.55;50.91;99498.28;5080481;27;100421;-72
2023/03/09 10:40:19;;;;;;;31.80;17.02;;;;;;;8.58;50.44;99504.28;5078542;27;98818;-71
2023/03/09 10:42:45;;;;;;;26.58;16.45;;;;;;;8.52;50.21;99511.59;5080097;27;98807;-72
2023/03/09 10:45:22;;;;;;;29.15;16.33;;;;;;;8.50;50.53;99511.66;5075498;27;97233;-71
2023/03/09 10:47:57;;;;;;;31.23;17.15;;;;;;;8.49;50.55;99509.09;5076978;27;99198;-72
2023/03/09 10:50:29;;;;;;;32.80;16.60;;;;;;;8.37;50.74;99505.25;5073355;27;99717;-74
2023/03/09 10:52:57;;;;;;;28.75;16.88;;;;;;;8.31;50.60;99501.13;5071063;27;97375;-72
2023/03/09 10:55:36;;;;;;;29.60;17.67;;;;;;;8.27;50.80;99504.78;5076372;27;96826;-73
2023/03/09 10:58:14;;;;;;;33.67;19.08;;;;;;;8.17;50.93;99511.41;5083059;27;100186;-72
2023/03/09 11:00:51;;;;;;;29.92;18.23;;;;;;;7.95;51.37;99519.38;5083323;27;98967;-72
2023/03/09 11:03:21;;;;;;;30.05;18.23;;;;;;;8.04;51.59;99518.13;5081936;27;98607;-72
2023/03/09 11:05:47;;;;;;;29.67;18.23;;;;;;;8.00;51.68;99516.56;5085331;27;96945;-73
2023/03/09 11:08:24;;;;;;;30.75;18.13;;;;;;;8.04;51.64;99523.41;5079006;27;99148;-72
2023/03/09 11:11:01;;;;;;;28.45;17.58;;;;;;;7.98;51.69;99526.31;5082706;27;98920;-72
2023/03/09 11:13:27;;;;;;;30.67;18.52;;;;;;;7.99;51.99;99526.25;5073835;27;96912;-71
2023/03/09 11:16:06;;;;;;;34.17;19.05;;;;;;;8.18;51.71;99528.03;5075899;27;97145;-71
2023/03/09 11:18:33;;;;;;;30.52;17.95;;;;;;;8.33;50.85;99537.91;5076024;27;98773;-72
2023/03/09 11:20:59;;;;;;;31.67;19.02;;;;;;;8.28;51.18;99538.06;5084951;27;102046;-72
2023/03/09 11:23:33;;;;;;;35.03;19.60;;;;;;;8.16;51.18;99543.91;5084303;27;97219;-71
2023/03/09 11:26:17;;;;;;;30.20;19.17;;;;;;;8.17;51.19;99539.50;5080160;27;96938;-72
2023/03/09 11:28:54;;;;;;;35.42;19.75;;;;;;;8.04;51.99;99541.81;5079290;27;98932;-71